sensor_id;sensor_type;location;lat;lon;timestamp;noise_LAeq;noise_LA_min;noise_LA_max;noise_LA01;noise_LA95
68279;Laerm;55108;51.790;10.960;2023-07-09T00:01:44;59.49;29.25;78.41;;
68279;Laerm;55108;51.790;10.960;2023-07-09T00:04:10;53.84;28.39;72.41;;
68279;Laerm;55108;51.790;10.960;2023-07-09T00:06:36;61.76;31.57;78.86;;
68279;Laerm;55108;51.790;10.960;2023-07-09T00:09:01;32.05;28.35;45.01;;
68279;Laerm;55108;51.790;10.960;2023-07-09T00:11:28;31.34;27.98;44.99;;
68279;Laerm;55108;51.790;10.960;2023-07-09T00:13:53;56.81;30.03;73.77;;
68279;Laerm;55108;51.790;10.960;2023-07-09T00:16:20;62.08;29.24;75.79;;
68279;Laerm;55108;51.790;10.960;2023-07-09T00:18:47;55.75;28.48;71.98;;
68279;Laerm;55108;51.790;10.960;2023-07-09T00:21:14;53.95;28.95;71.43;;
68279;Laerm;55108;51.790;10.960;2023-07-09T00:23:39;60.06;30.63;78.00;;
68279;Laerm;55108;51.790;10.960;2023-07-09T00:26:09;58.87;33.18;72.73;;
68279;Laerm;55108;51.790;10.960;2023-07-09T00:28:36;55.30;31.21;72.01;;
68279;Laerm;55108;51.790;10.960;2023-07-09T00:31:01;58.59;30.75;74.54;;
68279;Laerm;55108;51.790;10.960;2023-07-09T00:33:27;32.23;27.96;48.95;;
68279;Laerm;55108;51.790;10.960;2023-07-09T00:35:56;58.63;30.82;74.61;;
68279;Laerm;55108;51.790;10.960;2023-07-09T00:38:23;54.77;27.63;72.43;;
68279;Laerm;55108;51.790;10.960;2023-07-09T00:41:02;28.89;27.20;34.13;;
68279;Laerm;55108;51.790;10.960;2023-07-09T00:43:35;54.72;28.57;68.93;;
68279;Laerm;55108;51.790;10.960;2023-07-09T00:46:14;29.34;27.18;34.63;;
68279;Laerm;55108;51.790;10.960;2023-07-09T00:48:40;60.79;28.27;78.87;;
68279;Laerm;55108;51.790;10.960;2023-07-09T00:51:10;58.77;30.45;75.05;;
68279;Laerm;55108;51.790;10.960;2023-07-09T00:53:37;56.76;28.09;74.86;;
68279;Laerm;55108;51.790;10.960;2023-07-09T00:56:12;28.45;27.31;30.55;;
68279;Laerm;55108;51.790;10.960;2023-07-09T00:58:39;55.10;27.49;71.82;;
68279;Laerm;55108;51.790;10.960;2023-07-09T01:01:09;30.96;27.72;42.78;;
68279;Laerm;55108;51.790;10.960;2023-07-09T01:03:40;39.83;27.43;59.88;;
68279;Laerm;55108;51.790;10.960;2023-07-09T01:06:07;58.01;27.20;78.97;;
68279;Laerm;55108;51.790;10.960;2023-07-09T01:08:34;51.75;27.10;69.21;;
68279;Laerm;55108;51.790;10.960;2023-07-09T01:11:00;32.07;27.54;43.46;;
68279;Laerm;55108;51.790;10.960;2023-07-09T01:13:27;55.65;27.36;72.25;;
68279;Laerm;55108;51.790;10.960;2023-07-09T01:15:53;54.67;27.84;72.74;;
68279;Laerm;55108;51.790;10.960;2023-07-09T01:18:20;55.11;27.40;72.99;;
68279;Laerm;55108;51.790;10.960;2023-07-09T01:20:46;50.59;27.91;65.77;;
68279;Laerm;55108;51.790;10.960;2023-07-09T01:23:12;55.16;27.39;73.56;;
68279;Laerm;55108;51.790;10.960;2023-07-09T01:25:43;56.78;27.28;75.82;;
68279;Laerm;55108;51.790;10.960;2023-07-09T01:28:09;29.14;26.99;42.18;;
68279;Laerm;55108;51.790;10.960;2023-07-09T01:30:35;33.31;27.31;49.45;;
68279;Laerm;55108;51.790;10.960;2023-07-09T01:33:02;30.10;27.01;43.94;;
68279;Laerm;55108;51.790;10.960;2023-07-09T01:35:28;55.09;26.92;72.32;;
68279;Laerm;55108;51.790;10.960;2023-07-09T01:37:55;29.31;26.90;44.22;;
68279;Laerm;55108;51.790;10.960;2023-07-09T01:40:22;33.73;27.26;51.47;;
68279;Laerm;55108;51.790;10.960;2023-07-09T01:42:48;34.81;27.14;51.80;;
68279;Laerm;55108;51.790;10.960;2023-07-09T01:45:14;35.46;27.00;47.68;;
68279;Laerm;55108;51.790;10.960;2023-07-09T01:47:40;32.24;26.96;47.05;;
68279;Laerm;55108;51.790;10.960;2023-07-09T01:50:08;35.50;27.03;51.72;;
68279;Laerm;55108;51.790;10.960;2023-07-09T01:52:35;38.13;27.33;53.08;;
68279;Laerm;55108;51.790;10.960;2023-07-09T01:55:01;60.51;28.09;78.69;;
68279;Laerm;55108;51.790;10.960;2023-07-09T01:57:28;38.19;26.96;51.39;;
68279;Laerm;55108;51.790;10.960;2023-07-09T02:00:05;36.70;27.19;49.06;;
68279;Laerm;55108;51.790;10.960;2023-07-09T02:02:35;56.67;27.87;75.81;;
68279;Laerm;55108;51.790;10.960;2023-07-09T02:05:00;56.18;28.35;73.34;;
68279;Laerm;55108;51.790;10.960;2023-07-09T02:07:26;55.63;28.44;72.62;;
68279;Laerm;55108;51.790;10.960;2023-07-09T02:09:52;55.79;29.14;73.88;;
68279;Laerm;55108;51.790;10.960;2023-07-09T02:12:18;36.71;28.02;46.80;;
68279;Laerm;55108;51.790;10.960;2023-07-09T02:14:44;54.87;28.78;71.33;;
68279;Laerm;55108;51.790;10.960;2023-07-09T02:17:11;55.19;29.65;71.64;;
68279;Laerm;55108;51.790;10.960;2023-07-09T02:19:37;40.98;29.95;49.71;;
68279;Laerm;55108;51.790;10.960;2023-07-09T02:22:03;55.84;32.22;71.86;;
68279;Laerm;55108;51.790;10.960;2023-07-09T02:24:29;46.17;30.14;64.25;;
68279;Laerm;55108;51.790;10.960;2023-07-09T02:26:55;41.60;29.38;53.16;;
68279;Laerm;55108;51.790;10.960;2023-07-09T02:29:21;42.37;29.31;54.56;;
68279;Laerm;55108;51.790;10.960;2023-07-09T02:31:48;44.69;29.71;57.06;;
68279;Laerm;55108;51.790;10.960;2023-07-09T02:34:14;46.23;30.09;57.31;;
68279;Laerm;55108;51.790;10.960;2023-07-09T02:36:39;59.72;30.92;76.91;;
68279;Laerm;55108;51.790;10.960;2023-07-09T02:39:08;46.17;30.56;62.03;;
68279;Laerm;55108;51.790;10.960;2023-07-09T02:41:34;47.78;30.50;61.76;;
68279;Laerm;55108;51.790;10.960;2023-07-09T02:44:00;56.00;30.51;75.07;;
68279;Laerm;55108;51.790;10.960;2023-07-09T02:46:26;56.72;31.13;74.75;;
68279;Laerm;55108;51.790;10.960;2023-07-09T02:48:51;45.60;30.77;58.10;;
68279;Laerm;55108;51.790;10.960;2023-07-09T02:51:17;58.42;31.25;77.16;;
68279;Laerm;55108;51.790;10.960;2023-07-09T02:53:43;47.26;31.70;58.25;;
68279;Laerm;55108;51.790;10.960;2023-07-09T02:56:08;57.06;32.63;74.06;;
68279;Laerm;55108;51.790;10.960;2023-07-09T02:58:34;46.19;31.13;55.86;;
68279;Laerm;55108;51.790;10.960;2023-07-09T03:01:00;54.74;31.98;70.27;;
68279;Laerm;55108;51.790;10.960;2023-07-09T03:03:26;48.46;31.88;62.70;;
68279;Laerm;55108;51.790;10.960;2023-07-09T03:05:53;46.46;29.90;59.87;;
68279;Laerm;55108;51.790;10.960;2023-07-09T03:08:19;45.09;30.36;55.80;;
68279;Laerm;55108;51.790;10.960;2023-07-09T03:10:45;44.30;31.53;56.04;;
68279;Laerm;55108;51.790;10.960;2023-07-09T03:13:10;45.45;30.48;58.28;;
68279;Laerm;55108;51.790;10.960;2023-07-09T03:15:36;60.24;29.85;76.95;;
68279;Laerm;55108;51.790;10.960;2023-07-09T03:18:02;46.98;29.50;61.61;;
68279;Laerm;55108;51.790;10.960;2023-07-09T03:20:27;55.28;30.98;69.42;;
68279;Laerm;55108;51.790;10.960;2023-07-09T03:22:53;62.79;33.08;76.51;;
68279;Laerm;55108;51.790;10.960;2023-07-09T03:25:19;49.48;30.23;61.05;;
68279;Laerm;55108;51.790;10.960;2023-07-09T03:27:47;58.13;31.17;73.90;;
68279;Laerm;55108;51.790;10.960;2023-07-09T03:30:12;57.41;30.30;75.24;;
68279;Laerm;55108;51.790;10.960;2023-07-09T03:32:38;57.36;29.82;75.01;;
68279;Laerm;55108;51.790;10.960;2023-07-09T03:35:04;54.18;30.67;71.23;;
68279;Laerm;55108;51.790;10.960;2023-07-09T03:37:30;46.67;30.57;57.92;;
68279;Laerm;55108;51.790;10.960;2023-07-09T03:39:55;62.92;34.97;79.96;;
68279;Laerm;55108;51.790;10.960;2023-07-09T03:42:21;59.98;33.46;75.91;;
68279;Laerm;55108;51.790;10.960;2023-07-09T03:44:47;57.45;33.31;74.15;;
68279;Laerm;55108;51.790;10.960;2023-07-09T03:47:13;52.96;31.16;67.68;;
68279;Laerm;55108;51.790;10.960;2023-07-09T03:49:38;50.90;30.13;66.50;;
68279;Laerm;55108;51.790;10.960;2023-07-09T03:52:06;42.54;29.55;57.04;;
68279;Laerm;55108;51.790;10.960;2023-07-09T03:54:32;58.70;33.25;71.81;;
68279;Laerm;55108;51.790;10.960;2023-07-09T03:56:58;54.24;31.82;69.78;;
68279;Laerm;55108;51.790;10.960;2023-07-09T03:59:23;61.34;35.20;76.87;;
68279;Laerm;55108;51.790;10.960;2023-07-09T04:01:49;55.31;33.06;75.13;;
68279;Laerm;55108;51.790;10.960;2023-07-09T04:04:15;58.65;33.17;72.25;;
68279;Laerm;55108;51.790;10.960;2023-07-09T04:06:45;61.60;34.64;75.51;;
68279;Laerm;55108;51.790;10.960;2023-07-09T04:09:10;60.09;33.07;75.52;;
68279;Laerm;55108;51.790;10.960;2023-07-09T04:11:36;60.06;30.78;78.39;;
68279;Laerm;55108;51.790;10.960;2023-07-09T04:14:02;51.83;31.35;66.82;;
68279;Laerm;55108;51.790;10.960;2023-07-09T04:16:28;58.41;33.66;72.33;;
68279;Laerm;55108;51.790;10.960;2023-07-09T04:18:53;59.50;33.81;72.74;;
68279;Laerm;55108;51.790;10.960;2023-07-09T04:21:19;55.61;30.40;72.18;;
68279;Laerm;55108;51.790;10.960;2023-07-09T04:23:45;54.71;32.99;70.55;;
68279;Laerm;55108;51.790;10.960;2023-07-09T04:26:13;60.91;35.72;73.94;;
68279;Laerm;55108;51.790;10.960;2023-07-09T04:28:39;54.83;33.96;69.89;;
68279;Laerm;55108;51.790;10.960;2023-07-09T04:31:05;55.48;31.86;72.01;;
68279;Laerm;55108;51.790;10.960;2023-07-09T04:33:30;59.12;33.54;72.11;;
68279;Laerm;55108;51.790;10.960;2023-07-09T04:35:56;42.58;31.13;54.47;;
68279;Laerm;55108;51.790;10.960;2023-07-09T04:38:22;55.56;32.74;67.37;;
68279;Laerm;55108;51.790;10.960;2023-07-09T04:40:48;44.45;33.99;55.22;;
68279;Laerm;55108;51.790;10.960;2023-07-09T04:43:13;57.87;33.56;71.51;;
68279;Laerm;55108;51.790;10.960;2023-07-09T04:45:39;58.48;32.23;74.18;;
68279;Laerm;55108;51.790;10.960;2023-07-09T04:48:05;56.81;32.46;72.43;;
68279;Laerm;55108;51.790;10.960;2023-07-09T04:50:31;53.88;31.70;71.03;;
68279;Laerm;55108;51.790;10.960;2023-07-09T04:52:57;59.95;33.89;74.36;;
68279;Laerm;55108;51.790;10.960;2023-07-09T04:55:23;54.40;30.89;67.68;;
68279;Laerm;55108;51.790;10.960;2023-07-09T04:57:49;57.83;32.59;72.66;;
68279;Laerm;55108;51.790;10.960;2023-07-09T05:00:15;61.25;32.58;75.25;;
68279;Laerm;55108;51.790;10.960;2023-07-09T05:02:41;60.48;33.62;72.37;;
68279;Laerm;55108;51.790;10.960;2023-07-09T05:05:07;57.78;31.22;75.40;;
68279;Laerm;55108;51.790;10.960;2023-07-09T05:07:33;61.82;31.66;74.48;;
68279;Laerm;55108;51.790;10.960;2023-07-09T05:09:59;59.03;34.26;75.64;;
68279;Laerm;55108;51.790;10.960;2023-07-09T05:12:26;61.67;35.06;76.81;;
68279;Laerm;55108;51.790;10.960;2023-07-09T05:14:52;61.14;32.08;74.41;;
68279;Laerm;55108;51.790;10.960;2023-07-09T05:17:17;60.75;32.75;75.93;;
68279;Laerm;55108;51.790;10.960;2023-07-09T05:19:43;61.95;34.11;74.53;;
68279;Laerm;55108;51.790;10.960;2023-07-09T05:22:09;60.65;33.49;73.15;;
68279;Laerm;55108;51.790;10.960;2023-07-09T05:24:35;62.77;37.04;76.69;;
68279;Laerm;55108;51.790;10.960;2023-07-09T05:27:00;61.32;36.08;73.88;;
68279;Laerm;55108;51.790;10.960;2023-07-09T05:29:26;58.55;33.97;72.67;;
68279;Laerm;55108;51.790;10.960;2023-07-09T05:31:52;56.82;31.80;69.75;;
68279;Laerm;55108;51.790;10.960;2023-07-09T05:34:18;63.61;43.04;75.34;;
68279;Laerm;55108;51.790;10.960;2023-07-09T05:36:44;57.24;32.19;75.83;;
68279;Laerm;55108;51.790;10.960;2023-07-09T05:39:10;57.29;30.64;74.45;;
68279;Laerm;55108;51.790;10.960;2023-07-09T05:41:36;62.59;32.44;78.04;;
68279;Laerm;55108;51.790;10.960;2023-07-09T05:44:01;61.25;32.91;73.67;;
68279;Laerm;55108;51.790;10.960;2023-07-09T05:46:27;60.59;33.93;75.96;;
68279;Laerm;55108;51.790;10.960;2023-07-09T05:48:53;62.13;34.64;74.23;;
68279;Laerm;55108;51.790;10.960;2023-07-09T05:51:18;54.42;32.31;74.16;;
68279;Laerm;55108;51.790;10.960;2023-07-09T05:53:46;62.79;32.25;77.36;;
68279;Laerm;55108;51.790;10.960;2023-07-09T05:56:12;61.46;32.10;74.33;;
68279;Laerm;55108;51.790;10.960;2023-07-09T05:58:37;45.98;30.76;59.79;;
68279;Laerm;55108;51.790;10.960;2023-07-09T06:01:03;53.39;30.64;71.49;;
68279;Laerm;55108;51.790;10.960;2023-07-09T06:03:29;61.71;35.32;73.18;;
68279;Laerm;55108;51.790;10.960;2023-07-09T06:05:55;54.87;30.49;71.62;;
68279;Laerm;55108;51.790;10.960;2023-07-09T06:08:22;64.69;31.52;81.37;;
68279;Laerm;55108;51.790;10.960;2023-07-09T06:10:57;61.06;30.54;75.89;;
68279;Laerm;55108;51.790;10.960;2023-07-09T06:13:24;64.21;31.74;82.07;;
68279;Laerm;55108;51.790;10.960;2023-07-09T06:15:50;65.58;34.48;85.65;;
68279;Laerm;55108;51.790;10.960;2023-07-09T06:18:17;61.98;33.24;74.63;;
68279;Laerm;55108;51.790;10.960;2023-07-09T06:20:46;66.25;38.54;79.42;;
68279;Laerm;55108;51.790;10.960;2023-07-09T06:23:12;64.13;33.39;75.63;;
68279;Laerm;55108;51.790;10.960;2023-07-09T06:25:38;64.24;41.79;77.47;;
68279;Laerm;55108;51.790;10.960;2023-07-09T06:28:03;63.03;37.30;77.50;;
68279;Laerm;55108;51.790;10.960;2023-07-09T06:30:29;61.08;33.34;78.47;;
68279;Laerm;55108;51.790;10.960;2023-07-09T06:32:55;63.75;37.33;76.69;;
68279;Laerm;55108;51.790;10.960;2023-07-09T06:35:20;64.83;38.96;78.17;;
68279;Laerm;55108;51.790;10.960;2023-07-09T06:37:46;62.35;35.47;74.49;;
68279;Laerm;55108;51.790;10.960;2023-07-09T06:40:12;64.60;35.36;76.24;;
68279;Laerm;55108;51.790;10.960;2023-07-09T06:42:38;64.87;39.31;75.86;;
68279;Laerm;55108;51.790;10.960;2023-07-09T06:45:04;63.89;35.46;74.61;;
68279;Laerm;55108;51.790;10.960;2023-07-09T06:47:30;61.38;33.98;74.49;;
68279;Laerm;55108;51.790;10.960;2023-07-09T06:49:55;66.47;42.41;77.00;;
68279;Laerm;55108;51.790;10.960;2023-07-09T06:52:21;58.92;33.33;72.30;;
68279;Laerm;55108;51.790;10.960;2023-07-09T06:54:47;64.04;34.67;77.09;;
68279;Laerm;55108;51.790;10.960;2023-07-09T06:57:14;65.18;31.62;81.54;;
68279;Laerm;55108;51.790;10.960;2023-07-09T06:59:40;63.62;35.64;80.17;;
68279;Laerm;55108;51.790;10.960;2023-07-09T07:02:05;59.01;32.61;74.37;;
68279;Laerm;55108;51.790;10.960;2023-07-09T07:04:31;62.46;36.56;73.04;;
68279;Laerm;55108;51.790;10.960;2023-07-09T07:06:57;60.86;34.80;73.17;;
68279;Laerm;55108;51.790;10.960;2023-07-09T07:09:23;63.00;35.62;75.52;;
68279;Laerm;55108;51.790;10.960;2023-07-09T07:11:49;61.88;33.99;75.37;;
68279;Laerm;55108;51.790;10.960;2023-07-09T07:14:15;64.36;33.97;75.64;;
68279;Laerm;55108;51.790;10.960;2023-07-09T07:16:40;64.41;39.69;75.50;;
68279;Laerm;55108;51.790;10.960;2023-07-09T07:19:06;62.33;33.78;74.72;;
68279;Laerm;55108;51.790;10.960;2023-07-09T07:21:32;63.67;40.46;74.23;;
68279;Laerm;55108;51.790;10.960;2023-07-09T07:23:58;64.77;37.91;74.99;;
68279;Laerm;55108;51.790;10.960;2023-07-09T07:26:23;64.19;37.98;77.57;;
68279;Laerm;55108;51.790;10.960;2023-07-09T07:28:49;63.74;38.52;74.88;;
68279;Laerm;55108;51.790;10.960;2023-07-09T07:31:15;65.12;40.85;74.79;;
68279;Laerm;55108;51.790;10.960;2023-07-09T07:33:42;64.78;35.30;75.60;;
68279;Laerm;55108;51.790;10.960;2023-07-09T07:36:07;63.55;39.13;74.21;;
68279;Laerm;55108;51.790;10.960;2023-07-09T07:38:33;65.04;41.49;76.20;;
68279;Laerm;55108;51.790;10.960;2023-07-09T07:41:00;66.42;44.80;75.26;;
68279;Laerm;55108;51.790;10.960;2023-07-09T07:43:26;65.10;40.36;76.82;;
68279;Laerm;55108;51.790;10.960;2023-07-09T07:45:51;63.44;39.81;73.52;;
68279;Laerm;55108;51.790;10.960;2023-07-09T07:48:17;63.48;41.98;74.12;;
68279;Laerm;55108;51.790;10.960;2023-07-09T07:50:43;68.69;39.77;85.11;;
68279;Laerm;55108;51.790;10.960;2023-07-09T07:53:11;65.49;39.29;74.23;;
68279;Laerm;55108;51.790;10.960;2023-07-09T07:55:36;67.04;46.40;80.36;;
68279;Laerm;55108;51.790;10.960;2023-07-09T07:58:03;62.41;38.13;72.78;;
68279;Laerm;55108;51.790;10.960;2023-07-09T08:00:29;63.93;37.88;74.49;;
68279;Laerm;55108;51.790;10.960;2023-07-09T08:02:54;63.47;37.09;75.42;;
68279;Laerm;55108;51.790;10.960;2023-07-09T08:05:20;65.04;43.44;75.80;;
68279;Laerm;55108;51.790;10.960;2023-07-09T08:07:48;66.15;40.77;74.94;;
68279;Laerm;55108;51.790;10.960;2023-07-09T08:10:14;65.81;42.59;75.22;;
68279;Laerm;55108;51.790;10.960;2023-07-09T08:12:40;64.72;46.96;75.90;;
68279;Laerm;55108;51.790;10.960;2023-07-09T08:15:06;67.68;41.52;79.03;;
68279;Laerm;55108;51.790;10.960;2023-07-09T08:17:32;65.97;49.00;75.10;;
68279;Laerm;55108;51.790;10.960;2023-07-09T08:19:58;65.79;44.14;75.63;;
68279;Laerm;55108;51.790;10.960;2023-07-09T08:22:23;66.95;41.74;76.94;;
68279;Laerm;55108;51.790;10.960;2023-07-09T08:24:49;66.91;46.80;76.02;;
68279;Laerm;55108;51.790;10.960;2023-07-09T08:27:16;68.02;52.54;75.94;;
68279;Laerm;55108;51.790;10.960;2023-07-09T08:29:41;66.00;40.51;75.18;;
68279;Laerm;55108;51.790;10.960;2023-07-09T08:32:08;65.07;41.65;73.74;;
68279;Laerm;55108;51.790;10.960;2023-07-09T08:34:34;69.35;45.09;83.10;;
68279;Laerm;55108;51.790;10.960;2023-07-09T08:37:00;65.86;47.62;76.46;;
68279;Laerm;55108;51.790;10.960;2023-07-09T08:39:26;65.63;58.45;73.39;;
68279;Laerm;55108;51.790;10.960;2023-07-09T08:41:54;63.59;41.00;71.71;;
68279;Laerm;55108;51.790;10.960;2023-07-09T08:46:54;66.10;38.76;76.63;;
68279;Laerm;55108;51.790;10.960;2023-07-09T08:49:35;66.54;44.17;80.86;;
68279;Laerm;55108;51.790;10.960;2023-07-09T08:52:02;67.95;40.39;87.54;;
68279;Laerm;55108;51.790;10.960;2023-07-09T08:54:31;65.54;45.97;75.97;;
68279;Laerm;55108;51.790;10.960;2023-07-09T08:57:00;67.42;43.47;80.09;;
68279;Laerm;55108;51.790;10.960;2023-07-09T08:59:27;67.31;40.32;79.30;;
68279;Laerm;55108;51.790;10.960;2023-07-09T09:01:53;66.39;44.74;74.49;;
68279;Laerm;55108;51.790;10.960;2023-07-09T09:04:24;68.00;43.18;86.56;;
68279;Laerm;55108;51.790;10.960;2023-07-09T09:06:56;67.68;45.11;81.26;;
68279;Laerm;55108;51.790;10.960;2023-07-09T09:09:33;67.72;45.21;77.28;;
68279;Laerm;55108;51.790;10.960;2023-07-09T09:12:09;65.92;39.14;75.63;;
68279;Laerm;55108;51.790;10.960;2023-07-09T09:14:40;67.49;41.15;77.99;;
68279;Laerm;55108;51.790;10.960;2023-07-09T09:17:14;66.15;41.96;75.58;;
68279;Laerm;55108;51.790;10.960;2023-07-09T09:19:47;66.36;39.78;76.49;;
68279;Laerm;55108;51.790;10.960;2023-07-09T09:22:15;66.66;38.92;79.94;;
68279;Laerm;55108;51.790;10.960;2023-07-09T09:24:51;69.44;53.70;76.57;;
68279;Laerm;55108;51.790;10.960;2023-07-09T09:27:19;65.39;38.07;74.81;;
68279;Laerm;55108;51.790;10.960;2023-07-09T09:29:45;66.88;43.14;81.85;;
68279;Laerm;55108;51.790;10.960;2023-07-09T09:32:16;66.63;53.17;74.60;;
68279;Laerm;55108;51.790;10.960;2023-07-09T09:34:44;66.73;50.38;76.76;;
68279;Laerm;55108;51.790;10.960;2023-07-09T09:37:10;66.74;47.58;77.30;;
68279;Laerm;55108;51.790;10.960;2023-07-09T09:39:39;66.85;42.68;82.08;;
68279;Laerm;55108;51.790;10.960;2023-07-09T09:42:10;66.24;44.61;74.81;;
68279;Laerm;55108;51.790;10.960;2023-07-09T09:44:35;67.37;49.32;75.64;;
68279;Laerm;55108;51.790;10.960;2023-07-09T09:47:01;66.10;41.02;76.02;;
68279;Laerm;55108;51.790;10.960;2023-07-09T09:49:27;64.99;46.40;74.71;;
68279;Laerm;55108;51.790;10.960;2023-07-09T09:51:53;67.01;42.97;75.28;;
68279;Laerm;55108;51.790;10.960;2023-07-09T09:54:24;67.74;42.01;78.22;;
68279;Laerm;55108;51.790;10.960;2023-07-09T09:56:50;65.29;41.95;75.60;;
68279;Laerm;55108;51.790;10.960;2023-07-09T09:59:17;66.23;41.19;74.28;;
68279;Laerm;55108;51.790;10.960;2023-07-09T10:01:44;65.09;40.81;77.25;;
68279;Laerm;55108;51.790;10.960;2023-07-09T10:04:10;65.15;42.85;73.66;;
68279;Laerm;55108;51.790;10.960;2023-07-09T10:06:41;64.63;39.78;74.94;;
68279;Laerm;55108;51.790;10.960;2023-07-09T10:09:17;65.22;43.73;73.80;;
68279;Laerm;55108;51.790;10.960;2023-07-09T10:11:46;65.49;45.77;74.20;;
68279;Laerm;55108;51.790;10.960;2023-07-09T10:16:44;65.56;39.90;76.41;;
68279;Laerm;55108;51.790;10.960;2023-07-09T10:21:42;65.48;46.05;77.23;;
68279;Laerm;55108;51.790;10.960;2023-07-09T10:27:00;65.40;43.12;76.83;;
68279;Laerm;55108;51.790;10.960;2023-07-09T10:29:35;65.97;42.85;75.77;;
68279;Laerm;55108;51.790;10.960;2023-07-09T10:32:10;66.06;48.16;74.13;;
68279;Laerm;55108;51.790;10.960;2023-07-09T10:39:55;63.73;37.64;76.53;;
68279;Laerm;55108;51.790;10.960;2023-07-09T10:42:35;66.37;41.94;78.24;;
68279;Laerm;55108;51.790;10.960;2023-07-09T10:45:08;62.78;35.47;74.24;;
68279;Laerm;55108;51.790;10.960;2023-07-09T10:47:37;62.34;37.43;74.04;;
68279;Laerm;55108;51.790;10.960;2023-07-09T10:50:05;64.36;37.48;76.81;;
68279;Laerm;55108;51.790;10.960;2023-07-09T10:52:36;61.63;35.22;78.33;;
68279;Laerm;55108;51.790;10.960;2023-07-09T10:55:08;64.60;38.31;73.83;;
68279;Laerm;55108;51.790;10.960;2023-07-09T11:00:03;70.50;36.34;88.05;;
68279;Laerm;55108;51.790;10.960;2023-07-09T11:02:33;63.13;39.21;73.72;;
68279;Laerm;55108;51.790;10.960;2023-07-09T11:05:01;65.91;47.57;73.61;;
68279;Laerm;55108;51.790;10.960;2023-07-09T11:07:29;63.70;41.22;74.36;;
68279;Laerm;55108;51.790;10.960;2023-07-09T11:09:56;64.87;40.50;74.99;;
68279;Laerm;55108;51.790;10.960;2023-07-09T11:14:56;62.95;39.06;72.55;;
68279;Laerm;55108;51.790;10.960;2023-07-09T11:17:25;64.87;39.04;74.74;;
68279;Laerm;55108;51.790;10.960;2023-07-09T11:19:58;69.52;39.29;88.08;;
68279;Laerm;55108;51.790;10.960;2023-07-09T11:22:35;64.37;40.37;73.65;;
68279;Laerm;55108;51.790;10.960;2023-07-09T11:25:09;64.96;42.19;77.56;;
68279;Laerm;55108;51.790;10.960;2023-07-09T11:27:44;63.36;40.68;76.53;;
68279;Laerm;55108;51.790;10.960;2023-07-09T11:30:20;62.02;34.88;74.95;;
68279;Laerm;55108;51.790;10.960;2023-07-09T11:32:47;65.21;40.43;76.78;;
68279;Laerm;55108;51.790;10.960;2023-07-09T11:35:21;69.22;45.05;85.17;;
68279;Laerm;55108;51.790;10.960;2023-07-09T11:37:48;65.11;43.26;73.76;;
68279;Laerm;55108;51.790;10.960;2023-07-09T11:40:15;53.91;36.93;69.39;;
68279;Laerm;55108;51.790;10.960;2023-07-09T11:42:48;63.09;42.56;72.38;;
68279;Laerm;55108;51.790;10.960;2023-07-09T11:45:15;65.70;43.15;76.35;;
68279;Laerm;55108;51.790;10.960;2023-07-09T11:47:50;66.32;38.20;79.19;;
68279;Laerm;55108;51.790;10.960;2023-07-09T11:50:27;68.12;41.70;83.38;;
68279;Laerm;55108;51.790;10.960;2023-07-09T11:52:56;66.41;47.54;77.22;;
68279;Laerm;55108;51.790;10.960;2023-07-09T11:55:27;66.81;44.21;78.04;;
68279;Laerm;55108;51.790;10.960;2023-07-09T11:57:54;64.85;37.68;75.06;;
68279;Laerm;55108;51.790;10.960;2023-07-09T12:00:20;67.39;43.24;86.43;;
68279;Laerm;55108;51.790;10.960;2023-07-09T12:02:46;65.20;41.56;75.05;;
68279;Laerm;55108;51.790;10.960;2023-07-09T12:05:18;64.89;41.55;76.94;;
68279;Laerm;55108;51.790;10.960;2023-07-09T12:07:44;66.52;44.45;77.65;;
68279;Laerm;55108;51.790;10.960;2023-07-09T12:10:16;65.03;39.37;76.27;;
68279;Laerm;55108;51.790;10.960;2023-07-09T12:12:43;65.93;41.74;74.35;;
68279;Laerm;55108;51.790;10.960;2023-07-09T12:15:15;62.84;40.75;73.51;;
68279;Laerm;55108;51.790;10.960;2023-07-09T12:17:41;69.58;42.24;83.78;;
68279;Laerm;55108;51.790;10.960;2023-07-09T12:20:07;71.52;44.60;87.81;;
68279;Laerm;55108;51.790;10.960;2023-07-09T12:22:32;64.76;38.28;75.94;;
68279;Laerm;55108;51.790;10.960;2023-07-09T12:24:58;64.88;39.98;77.33;;
68279;Laerm;55108;51.790;10.960;2023-07-09T12:27:25;64.64;39.37;76.09;;
68279;Laerm;55108;51.790;10.960;2023-07-09T12:29:53;66.28;44.69;75.94;;
68279;Laerm;55108;51.790;10.960;2023-07-09T12:32:19;65.28;41.22;75.60;;
68279;Laerm;55108;51.790;10.960;2023-07-09T12:34:51;65.44;42.06;76.01;;
68279;Laerm;55108;51.790;10.960;2023-07-09T12:37:17;68.57;45.35;84.68;;
68279;Laerm;55108;51.790;10.960;2023-07-09T12:39:43;65.44;37.88;77.97;;
68279;Laerm;55108;51.790;10.960;2023-07-09T12:42:14;64.23;41.52;74.54;;
68279;Laerm;55108;51.790;10.960;2023-07-09T12:44:41;62.84;36.81;75.40;;
68279;Laerm;55108;51.790;10.960;2023-07-09T12:47:07;62.88;35.81;75.61;;
68279;Laerm;55108;51.790;10.960;2023-07-09T12:49:39;69.83;40.21;89.90;;
68279;Laerm;55108;51.790;10.960;2023-07-09T12:52:09;68.64;40.69;84.66;;
68279;Laerm;55108;51.790;10.960;2023-07-09T12:54:37;64.01;39.63;74.68;;
68279;Laerm;55108;51.790;10.960;2023-07-09T12:57:03;66.03;41.15;76.65;;
68279;Laerm;55108;51.790;10.960;2023-07-09T12:59:39;63.24;34.21;76.35;;
68279;Laerm;55108;51.790;10.960;2023-07-09T13:04:36;59.34;36.54;72.42;;
68279;Laerm;55108;51.790;10.960;2023-07-09T13:07:03;64.51;40.18;77.72;;
68279;Laerm;55108;51.790;10.960;2023-07-09T13:09:29;65.38;38.30;75.26;;
68279;Laerm;55108;51.790;10.960;2023-07-09T13:11:55;63.72;38.63;74.23;;
68279;Laerm;55108;51.790;10.960;2023-07-09T13:14:22;64.32;39.00;74.57;;
68279;Laerm;55108;51.790;10.960;2023-07-09T13:16:49;64.99;40.27;74.95;;
68279;Laerm;55108;51.790;10.960;2023-07-09T13:19:16;64.35;36.61;76.14;;
68279;Laerm;55108;51.790;10.960;2023-07-09T13:21:41;66.74;37.03;84.69;;
68279;Laerm;55108;51.790;10.960;2023-07-09T13:24:12;62.65;35.14;75.91;;
68279;Laerm;55108;51.790;10.960;2023-07-09T13:26:38;64.68;40.67;75.89;;
68279;Laerm;55108;51.790;10.960;2023-07-09T13:29:09;64.50;41.10;77.59;;
68279;Laerm;55108;51.790;10.960;2023-07-09T13:31:36;65.01;37.67;74.80;;
68279;Laerm;55108;51.790;10.960;2023-07-09T13:34:04;64.91;36.95;77.24;;
68279;Laerm;55108;51.790;10.960;2023-07-09T13:36:34;61.61;36.13;74.69;;
68279;Laerm;55108;51.790;10.960;2023-07-09T13:39:00;63.84;41.26;74.66;;
68279;Laerm;55108;51.790;10.960;2023-07-09T13:41:26;65.97;44.82;77.54;;
68279;Laerm;55108;51.790;10.960;2023-07-09T13:43:52;62.83;38.98;75.34;;
68279;Laerm;55108;51.790;10.960;2023-07-09T13:46:17;61.79;33.93;75.17;;
68279;Laerm;55108;51.790;10.960;2023-07-09T13:48:43;63.69;41.83;78.53;;
68279;Laerm;55108;51.790;10.960;2023-07-09T13:51:16;66.23;36.61;75.78;;
68279;Laerm;55108;51.790;10.960;2023-07-09T13:53:43;65.01;39.65;74.49;;
68279;Laerm;55108;51.790;10.960;2023-07-09T13:56:09;65.37;38.49;76.49;;